Time;durP1;ratioP1;P1;durP2;ratioP2;P2;SDS_P1;SDS_P2;PMS_P1;PMS_P2;Temp;Humidity;BMP_temperature;BMP_pressure;BME280_temperature;BME280_humidity;BME280_pressure;Samples;Min_cycle;Max_cycle;Signal;HPM_P1;HPM_P2
2023/10/29 00:00:12;;;;;;;0.17;0.17;;;;;;;19.40;71.96;98955.75;5096275;28;20498;-68
2023/10/29 00:02:37;;;;;;;0.00;0.00;;;;;;;19.08;72.38;98945.78;5090977;28;20088;-67
2023/10/29 00:05:03;;;;;;;0.00;0.00;;;;;;;19.08;72.16;98951.09;5090153;28;20395;-68
2023/10/29 00:07:28;;;;;;;0.13;0.13;;;;;;;19.86;69.81;98945.22;5103473;28;20038;-67
2023/10/29 00:09:54;;;;;;;0.00;0.00;;;;;;;19.67;70.36;98942.16;5086409;28;20031;-67
2023/10/29 00:12:20;;;;;;;0.00;0.00;;;;;;;19.46;71.10;98934.06;5091271;28;20024;-67
2023/10/29 00:14:45;;;;;;;0.00;0.00;;;;;;;19.50;69.31;98924.06;5092336;28;20073;-67
2023/10/29 00:17:10;;;;;;;0.00;0.00;;;;;;;19.68;70.06;98921.81;5084181;28;20114;-68
2023/10/29 00:19:36;;;;;;;0.15;0.15;;;;;;;19.80;67.54;98926.16;5078756;28;20032;-67
2023/10/29 00:22:01;;;;;;;0.10;0.10;;;;;;;19.99;66.79;98919.44;5073003;28;20035;-67
2023/10/29 00:24:27;;;;;;;0.00;0.00;;;;;;;19.85;68.02;98903.75;5074026;28;20027;-67
2023/10/29 00:26:55;;;;;;;0.00;0.00;;;;;;;19.89;68.69;98918.44;5074334;28;20429;-67
2023/10/29 00:29:21;;;;;;;0.00;0.00;;;;;;;18.99;71.05;98915.53;5077762;28;20085;-67
2023/10/29 00:31:47;;;;;;;0.00;0.00;;;;;;;19.77;68.28;98910.47;5074089;28;20403;-66
2023/10/29 00:34:12;;;;;;;0.00;0.00;;;;;;;19.24;72.23;98904.91;5101018;28;20356;-66
2023/10/29 00:36:37;;;;;;;0.00;0.00;;;;;;;19.59;70.82;98890.72;5101037;28;20031;-66
2023/10/29 00:39:03;;;;;;;0.08;0.08;;;;;;;19.31;71.90;98899.00;5081776;28;20106;-66
2023/10/29 00:41:29;;;;;;;0.00;0.00;;;;;;;19.57;69.28;98892.66;5076455;28;20169;-66
2023/10/29 00:43:54;;;;;;;0.10;0.10;;;;;;;20.19;67.14;98874.53;5091081;28;20026;-66
2023/10/29 00:46:20;;;;;;;0.00;0.00;;;;;;;20.13;65.97;98884.69;5080733;28;20038;-66
2023/10/29 00:48:46;;;;;;;7.32;3.20;;;;;;;19.27;70.01;98888.75;5098270;28;20027;-66
2023/10/29 00:51:11;;;;;;;0.00;0.00;;;;;;;20.12;66.49;98877.69;5083492;28;20015;-66
2023/10/29 00:53:37;;;;;;;0.00;0.00;;;;;;;19.73;67.09;98876.38;5077670;28;20032;-66
2023/10/29 00:56:04;;;;;;;0.00;0.00;;;;;;;19.45;69.94;98883.84;5081520;28;20474;-67
2023/10/29 00:58:30;;;;;;;0.00;0.00;;;;;;;20.36;66.40;98879.31;5095465;28;20029;-66
2023/10/29 01:00:55;;;;;;;0.00;0.00;;;;;;;19.90;66.96;98877.72;5094824;28;20110;-66
2023/10/29 01:03:21;;;;;;;0.00;0.00;;;;;;;19.78;66.70;98875.06;5090998;28;20031;-66
2023/10/29 01:05:47;;;;;;;0.00;0.00;;;;;;;20.16;64.63;98862.38;5078106;28;20482;-66
2023/10/29 01:08:14;;;;;;;0.00;0.00;;;;;;;20.34;64.66;98854.72;5090942;28;20509;-66
2023/10/29 01:10:39;;;;;;;0.00;0.00;;;;;;;20.43;62.86;98869.88;5085954;28;20016;-66
2023/10/29 01:13:04;;;;;;;0.00;0.00;;;;;;;20.42;63.24;98862.88;5078914;28;20471;-67
2023/10/29 01:15:30;;;;;;;0.00;0.00;;;;;;;20.46;63.66;98869.63;5090391;28;20108;-66
2023/10/29 01:17:55;;;;;;;0.20;0.20;;;;;;;20.53;61.84;98869.13;5073911;28;20058;-67
2023/10/29 01:20:21;;;;;;;0.00;0.00;;;;;;;20.51;62.27;98862.13;5096098;28;20050;-66
2023/10/29 01:22:47;;;;;;;0.00;0.00;;;;;;;21.19;60.22;98851.16;5083822;28;20024;-66
2023/10/29 01:25:13;;;;;;;0.00;0.00;;;;;;;19.73;64.73;98853.38;5072932;28;20331;-66
2023/10/29 01:27:38;;;;;;;0.00;0.00;;;;;;;19.67;64.28;98848.56;5090938;28;20103;-66
2023/10/29 01:30:07;;;;;;;0.00;0.00;;;;;;;19.92;64.96;98855.44;5072318;28;20122;-66
2023/10/29 01:32:33;;;;;;;0.00;0.00;;;;;;;19.77;64.87;98860.13;5092808;28;20020;-66
2023/10/29 01:34:58;;;;;;;0.00;0.00;;;;;;;20.21;64.04;98846.06;5073794;28;20034;-66
2023/10/29 01:37:24;;;;;;;0.00;0.00;;;;;;;20.72;61.24;98837.47;5106522;28;20055;-67
2023/10/29 01:39:49;;;;;;;0.00;0.00;;;;;;;19.81;64.43;98837.75;5100694;28;20046;-66
2023/10/29 01:42:15;;;;;;;0.00;0.00;;;;;;;20.11;62.23;98830.06;5105424;28;20051;-66
2023/10/29 01:44:40;;;;;;;0.60;0.57;;;;;;;20.24;62.08;98827.28;5082909;28;20498;-66
2023/10/29 01:47:05;;;;;;;1.10;0.60;;;;;;;20.17;60.05;98825.13;5093661;28;20453;-66
2023/10/29 01:49:31;;;;;;;3.50;0.40;;;;;;;20.05;61.67;98828.75;5101800;28;20023;-66
2023/10/29 01:51:56;;;;;;;0.55;0.30;;;;;;;19.89;62.55;98828.31;5112796;28;20035;-66
2023/10/29 01:54:22;;;;;;;0.45;0.45;;;;;;;19.43;63.89;98838.94;5079792;28;20483;-66
2023/10/29 01:56:48;;;;;;;0.75;0.50;;;;;;;20.52;59.95;98833.78;5082716;28;20013;-66
2023/10/29 01:59:14;;;;;;;0.98;0.43;;;;;;;19.95;62.55;98828.66;5075018;28;20471;-66
2023/10/29 02:01:43;;;;;;;0.65;0.40;;;;;;;20.75;59.71;98831.06;5078083;28;20054;-66
2023/10/29 02:04:09;;;;;;;0.45;0.43;;;;;;;19.59;61.93;98843.00;5075625;28;20471;-67
2023/10/29 02:06:38;;;;;;;0.00;0.00;;;;;;;19.02;67.23;98888.00;5093310;28;20024;-65
2023/10/29 02:09:04;;;;;;;0.00;0.00;;;;;;;19.48;65.01;98881.81;5074886;28;20016;-66
2023/10/29 02:11:30;;;;;;;0.00;0.00;;;;;;;19.09;67.27;98889.22;5093079;28;20020;-66
2023/10/29 02:13:55;;;;;;;0.00;0.00;;;;;;;19.29;67.14;98884.22;5100627;28;20439;-66
2023/10/29 02:16:20;;;;;;;0.00;0.00;;;;;;;19.81;62.61;98884.59;5085053;28;20115;-65
2023/10/29 02:18:46;;;;;;;5.82;3.33;;;;;;;18.87;64.78;98894.44;5101819;28;20031;-65
2023/10/29 02:21:11;;;;;;;0.00;0.00;;;;;;;18.98;66.63;98887.38;5075582;28;20432;-66
2023/10/29 02:23:36;;;;;;;0.00;0.00;;;;;;;18.50;70.75;98891.88;5093903;28;20548;-66
2023/10/29 02:26:02;;;;;;;0.00;0.00;;;;;;;17.56;71.66;98873.00;5074352;28;20036;-66
2023/10/29 02:28:27;;;;;;;0.00;0.00;;;;;;;17.58;72.07;98876.34;5098055;28;20016;-66
2023/10/29 02:30:53;;;;;;;0.00;0.00;;;;;;;18.18;67.44;98866.00;5088644;28;20114;-66
2023/10/29 02:33:18;;;;;;;0.00;0.00;;;;;;;17.15;70.14;98860.88;5098043;28;20081;-66
2023/10/29 02:35:44;;;;;;;0.00;0.00;;;;;;;17.48;70.76;98846.28;5075186;28;20064;-66
2023/10/29 02:38:09;;;;;;;0.00;0.00;;;;;;;18.11;67.48;98853.22;5095025;28;20072;-66
2023/10/29 02:40:35;;;;;;;0.00;0.00;;;;;;;18.11;66.36;98837.34;5075022;28;20020;-65
2023/10/29 02:43:00;;;;;;;0.00;0.00;;;;;;;16.95;68.95;98849.84;5074259;28;20514;-66
2023/10/29 02:45:26;;;;;;;0.40;0.40;;;;;;;17.52;69.01;98847.75;5079890;28;20443;-65
2023/10/29 02:47:53;;;;;;;0.00;0.00;;;;;;;17.04;71.96;98848.41;5074397;28;20030;-65
2023/10/29 02:50:18;;;;;;;0.00;0.00;;;;;;;17.23;72.48;98811.03;5090118;28;20028;-66
2023/10/29 02:52:44;;;;;;;0.00;0.00;;;;;;;16.96;74.42;98817.25;5113996;28;20521;-66
2023/10/29 02:55:09;;;;;;;0.00;0.00;;;;;;;16.87;76.43;98825.75;5097887;28;20483;-66
2023/10/29 02:57:35;;;;;;;0.00;0.00;;;;;;;17.32;75.90;98842.03;5075008;28;20542;-66
2023/10/29 03:00:00;;;;;;;0.00;0.00;;;;;;;17.69;74.59;98834.16;5081605;28;20028;-66
2023/10/29 03:02:26;;;;;;;0.00;0.00;;;;;;;18.10;71.57;98830.38;5095273;28;20518;-66
2023/10/29 03:04:51;;;;;;;0.00;0.00;;;;;;;17.79;73.84;98829.94;5092446;28;20034;-66
2023/10/29 03:07:16;;;;;;;0.00;0.00;;;;;;;18.01;71.74;98830.19;5074375;28;20031;-66
2023/10/29 03:09:42;;;;;;;0.00;0.00;;;;;;;18.75;69.94;98819.44;5073924;28;20134;-66
2023/10/29 03:12:07;;;;;;;0.00;0.00;;;;;;;18.34;70.76;98823.38;5077656;28;20421;-66
2023/10/29 03:14:33;;;;;;;0.00;0.00;;;;;;;18.28;72.37;98819.41;5101844;28;20150;-66
2023/10/29 03:16:58;;;;;;;0.00;0.00;;;;;;;17.56;73.87;98822.81;5081932;28;20390;-66
2023/10/29 03:19:23;;;;;;;0.00;0.00;;;;;;;18.64;70.10;98830.81;5091474;28;20016;-66
2023/10/29 03:21:49;;;;;;;0.00;0.00;;;;;;;18.97;68.20;98830.13;5087809;28;20063;-66
2023/10/29 03:24:15;;;;;;;0.00;0.00;;;;;;;18.21;71.03;98823.47;5092397;28;20097;-66
2023/10/29 03:26:41;;;;;;;0.00;0.00;;;;;;;18.87;69.25;98841.50;5092670;28;20031;-66
2023/10/29 03:29:07;;;;;;;0.00;0.00;;;;;;;18.43;70.36;98836.75;5073131;28;20387;-66
2023/10/29 03:31:33;;;;;;;0.00;0.00;;;;;;;17.97;71.58;98837.53;5073649;28;20100;-66
2023/10/29 03:33:58;;;;;;;0.00;0.00;;;;;;;17.65;73.43;98843.25;5078958;28;20028;-66
2023/10/29 03:36:24;;;;;;;0.00;0.00;;;;;;;18.23;70.08;98837.41;5094992;28;20024;-66
2023/10/29 03:38:49;;;;;;;0.00;0.00;;;;;;;17.86;71.37;98835.63;5073586;28;20016;-66
2023/10/29 03:41:22;;;;;;;0.00;0.00;;;;;;;18.25;70.68;98835.50;5095389;28;20564;-67
2023/10/29 03:43:48;;;;;;;0.00;0.00;;;;;;;18.05;71.11;98829.00;5085711;28;20089;-66
2023/10/29 03:46:13;;;;;;;0.00;0.00;;;;;;;18.12;70.28;98841.69;5110368;28;20042;-66
2023/10/29 03:48:44;;;;;;;0.00;0.00;;;;;;;18.04;68.87;98833.47;5076529;28;20024;-66
2023/10/29 03:51:10;;;;;;;0.00;0.00;;;;;;;18.19;68.61;98835.94;5090891;28;20510;-66
2023/10/29 03:53:36;;;;;;;0.00;0.00;;;;;;;18.30;68.75;98828.06;5073511;28;20051;-66
2023/10/29 03:56:01;;;;;;;0.00;0.00;;;;;;;18.44;67.60;98846.41;5091928;28;20445;-66
2023/10/29 03:58:27;;;;;;;0.00;0.00;;;;;;;18.23;67.94;98850.63;5093738;28;20037;-66
2023/10/29 04:00:53;;;;;;;0.00;0.00;;;;;;;18.66;68.00;98850.09;5081314;28;20031;-66
2023/10/29 04:03:18;;;;;;;0.00;0.00;;;;;;;18.92;66.12;98849.97;5092564;28;20533;-66
2023/10/29 04:05:43;;;;;;;0.03;0.03;;;;;;;18.99;64.33;98851.19;5072550;28;20489;-66
2023/10/29 04:08:09;;;;;;;0.00;0.00;;;;;;;18.91;63.53;98853.56;5082305;28;20032;-66
2023/10/29 04:10:34;;;;;;;0.00;0.00;;;;;;;18.30;65.38;98860.66;5088872;28;20024;-66
2023/10/29 04:13:00;;;;;;;0.00;0.00;;;;;;;18.65;63.94;98864.28;5097608;28;20541;-66
2023/10/29 04:15:25;;;;;;;0.00;0.00;;;;;;;18.55;64.78;98882.63;5077440;28;20092;-66
2023/10/29 04:17:50;;;;;;;0.00;0.00;;;;;;;17.87;66.85;98870.81;5078889;28;20028;-67
2023/10/29 04:20:16;;;;;;;0.00;0.00;;;;;;;19.53;60.92;98859.41;5104569;28;20376;-66
2023/10/29 04:22:42;;;;;;;0.00;0.00;;;;;;;19.35;60.30;98873.13;5106361;28;20055;-66
2023/10/29 04:25:08;;;;;;;0.20;0.20;;;;;;;19.29;60.07;98873.63;5071923;28;20024;-66
2023/10/29 04:27:33;;;;;;;0.00;0.00;;;;;;;18.90;61.05;98875.69;5091871;28;20031;-65
2023/10/29 04:29:59;;;;;;;0.00;0.00;;;;;;;18.03;63.09;98873.22;5098498;28;20400;-66
2023/10/29 04:32:24;;;;;;;0.00;0.00;;;;;;;18.82;60.27;98886.81;5088756;28;20031;-67
2023/10/29 04:34:50;;;;;;;0.00;0.00;;;;;;;18.25;60.38;98877.81;5080050;28;20028;-66
2023/10/29 04:37:15;;;;;;;0.75;0.75;;;;;;;18.91;58.93;98882.69;5076361;28;20467;-66
2023/10/29 04:39:42;;;;;;;0.00;0.00;;;;;;;18.56;60.30;98894.06;5072682;28;20040;-66
2023/10/29 04:42:08;;;;;;;0.00;0.00;;;;;;;18.74;60.78;98895.34;5074124;28;20052;-66
2023/10/29 04:44:33;;;;;;;0.00;0.00;;;;;;;18.12;64.09;98899.84;5091076;28;20140;-65
2023/10/29 04:46:59;;;;;;;0.00;0.00;;;;;;;17.76;66.94;98914.69;5072164;28;20069;-65
2023/10/29 04:49:26;;;;;;;0.00;0.00;;;;;;;17.87;66.79;98913.09;5090609;28;20146;-65
2023/10/29 04:51:51;;;;;;;0.00;0.00;;;;;;;17.96;67.24;98937.09;5072180;28;20064;-65
2023/10/29 04:54:17;;;;;;;0.00;0.00;;;;;;;17.63;65.79;98929.72;5108376;28;20427;-66
2023/10/29 04:56:42;;;;;;;0.00;0.00;;;;;;;18.17;63.10;98922.47;5078285;28;20024;-66
2023/10/29 04:59:07;;;;;;;0.00;0.00;;;;;;;18.52;63.33;98919.03;5072690;28;20036;-66
2023/10/29 05:01:33;;;;;;;0.00;0.00;;;;;;;17.92;63.84;98917.13;5072601;28;20032;-66
2023/10/29 05:03:58;;;;;;;0.00;0.00;;;;;;;18.03;65.23;98910.25;5075432;28;20059;-66
2023/10/29 05:06:24;;;;;;;0.00;0.00;;;;;;;18.29;62.36;98906.53;5072451;28;20043;-66
2023/10/29 05:08:49;;;;;;;0.00;0.00;;;;;;;17.43;65.12;98910.81;5072055;28;20031;-66
2023/10/29 05:11:15;;;;;;;0.00;0.00;;;;;;;18.55;61.43;98900.31;5089832;28;20043;-65
2023/10/29 05:13:41;;;;;;;0.00;0.00;;;;;;;17.64;62.58;98915.56;5072313;28;20439;-66
2023/10/29 05:16:07;;;;;;;0.00;0.00;;;;;;;18.05;62.49;98914.47;5097759;28;20027;-65
2023/10/29 05:18:32;;;;;;;0.00;0.00;;;;;;;18.01;63.38;98913.00;5077024;28;20020;-66
2023/10/29 05:20:57;;;;;;;0.00;0.00;;;;;;;18.20;61.41;98930.16;5090542;28;20409;-66
2023/10/29 05:23:23;;;;;;;0.00;0.00;;;;;;;18.23;61.62;98927.28;5082302;28;20043;-66
2023/10/29 05:25:49;;;;;;;0.00;0.00;;;;;;;18.42;61.08;98938.25;5088512;28;20027;-66
2023/10/29 05:28:16;;;;;;;0.00;0.00;;;;;;;18.38;60.01;98931.50;5093814;28;20107;-65
2023/10/29 05:30:42;;;;;;;0.00;0.00;;;;;;;17.58;62.09;98932.66;5089378;28;20042;-66
2023/10/29 05:33:07;;;;;;;0.00;0.00;;;;;;;17.86;62.13;98936.03;5097704;28;20498;-65
2023/10/29 05:35:33;;;;;;;0.00;0.00;;;;;;;17.70;62.48;98946.00;5087951;28;20039;-66
2023/10/29 05:37:58;;;;;;;0.00;0.00;;;;;;;17.69;62.29;98960.97;5103563;28;20032;-65
2023/10/29 05:40:24;;;;;;;0.00;0.00;;;;;;;17.65;63.38;98970.06;5091176;28;20093;-66
2023/10/29 05:42:50;;;;;;;0.00;0.00;;;;;;;17.86;61.11;98972.16;5091232;28;20074;-66
2023/10/29 05:45:15;;;;;;;0.00;0.00;;;;;;;17.58;62.77;98967.00;5092444;28;20027;-65
2023/10/29 05:47:40;;;;;;;0.00;0.00;;;;;;;17.66;61.88;98974.41;5089749;28;20077;-65
2023/10/29 05:50:06;;;;;;;0.00;0.00;;;;;;;18.30;58.76;98970.88;5108615;28;20376;-65
2023/10/29 05:52:32;;;;;;;1.10;1.00;;;;;;;17.98;59.97;98973.97;5080672;28;20086;-65
2023/10/29 05:55:00;;;;;;;0.00;0.00;;;;;;;17.26;63.64;98985.03;5079690;28;20483;-66
2023/10/29 05:57:25;;;;;;;0.00;0.00;;;;;;;17.05;64.34;98984.66;5096248;28;20024;-65
2023/10/29 05:59:51;;;;;;;0.00;0.00;;;;;;;17.24;63.43;98998.34;5093389;28;20031;-66
2023/10/29 06:02:16;;;;;;;0.00;0.00;;;;;;;17.91;59.93;98984.13;5093537;28;20024;-65
2023/10/29 06:04:41;;;;;;;0.00;0.00;;;;;;;17.36;62.63;98980.81;5075135;28;20069;-65
2023/10/29 06:07:08;;;;;;;0.00;0.00;;;;;;;17.60;62.87;98977.47;5098313;28;20391;-65
2023/10/29 06:09:33;;;;;;;0.00;0.00;;;;;;;17.26;63.71;98990.31;5106668;28;20057;-65
2023/10/29 06:11:59;;;;;;;0.00;0.00;;;;;;;17.22;63.53;98994.94;5093452;28;20051;-66
2023/10/29 06:14:24;;;;;;;0.00;0.00;;;;;;;17.09;63.56;98988.78;5080044;28;20463;-66
2023/10/29 06:16:56;;;;;;;0.00;0.00;;;;;;;16.68;65.45;99003.72;5106962;28;20028;-66
2023/10/29 06:19:22;;;;;;;0.00;0.00;;;;;;;16.81;64.33;99010.84;5092083;28;20457;-66
2023/10/29 06:21:48;;;;;;;5.03;0.63;;;;;;;17.67;61.22;99015.72;5092759;28;20036;-66
2023/10/29 06:24:13;;;;;;;2.50;0.40;;;;;;;17.33;62.69;99018.00;5096307;28;20034;-66
2023/10/29 06:26:38;;;;;;;4.97;0.60;;;;;;;17.71;61.68;99017.22;5072972;28;20074;-66
2023/10/29 06:29:06;;;;;;;2.10;0.27;;;;;;;17.30;63.28;99024.34;5086908;28;20439;-66
2023/10/29 06:31:33;;;;;;;2.20;0.50;;;;;;;18.01;60.85;99013.44;5094445;28;20035;-66
2023/10/29 06:33:58;;;;;;;0.85;0.28;;;;;;;17.87;61.47;99032.00;5095122;28;20110;-65
2023/10/29 06:36:24;;;;;;;5.63;0.60;;;;;;;17.52;63.60;99037.91;5105333;28;20110;-66
2023/10/29 06:38:49;;;;;;;0.97;0.30;;;;;;;17.43;62.99;99040.22;5086586;28;20028;-66
2023/10/29 06:41:14;;;;;;;3.08;0.70;;;;;;;17.51;63.20;99042.31;5075281;28;20465;-66
2023/10/29 06:43:40;;;;;;;1.03;0.43;;;;;;;17.41;63.49;99047.38;5076264;28;20062;-66
2023/10/29 06:46:05;;;;;;;3.70;0.33;;;;;;;17.25;64.18;99057.28;5088663;28;20558;-66
2023/10/29 06:48:30;;;;;;;4.70;0.50;;;;;;;17.57;63.48;99072.75;5092029;28;20040;-66
2023/10/29 06:50:56;;;;;;;1.27;0.73;;;;;;;17.18;64.45;99077.94;5090191;28;20419;-65
2023/10/29 06:53:21;;;;;;;5.37;0.83;;;;;;;17.39;64.09;99073.06;5073413;28;20150;-66
2023/10/29 06:55:47;;;;;;;3.20;0.40;;;;;;;17.38;63.36;99081.94;5104347;28;20019;-66
2023/10/29 06:58:13;;;;;;;5.80;0.83;;;;;;;17.18;64.40;99080.59;5098871;28;20113;-66
2023/10/29 07:00:38;;;;;;;4.43;0.40;;;;;;;17.15;65.19;99086.06;5073936;28;20028;-65
2023/10/29 07:03:03;;;;;;;2.30;0.60;;;;;;;16.78;67.17;99091.88;5074764;28;20455;-66
2023/10/29 07:05:29;;;;;;;1.73;0.30;;;;;;;17.40;64.34;99105.59;5076818;28;20020;-66
2023/10/29 07:07:54;;;;;;;2.50;0.50;;;;;;;17.17;65.41;99115.00;5096411;28;20514;-65
2023/10/29 07:10:20;;;;;;;0.83;0.30;;;;;;;16.93;66.94;99115.66;5082721;28;20532;-66
2023/10/29 07:12:45;;;;;;;1.03;0.50;;;;;;;17.42;66.11;99133.59;5075332;28;20023;-66
2023/10/29 07:15:11;;;;;;;0.93;0.43;;;;;;;17.05;67.94;99151.81;5096526;28;20036;-66
2023/10/29 07:17:36;;;;;;;5.07;0.43;;;;;;;16.75;69.33;99144.84;5093354;28;20046;-66
2023/10/29 07:20:04;;;;;;;1.50;0.43;;;;;;;17.22;66.25;99141.97;5075180;28;20118;-66
2023/10/29 07:22:30;;;;;;;6.23;1.37;;;;;;;16.95;68.08;99145.41;5091810;28;20024;-66
2023/10/29 07:24:55;;;;;;;4.67;0.40;;;;;;;17.88;63.27;99140.25;5090588;28;20016;-66
2023/10/29 07:27:20;;;;;;;3.17;0.70;;;;;;;17.26;63.69;99143.47;5089909;28;20028;-66
2023/10/29 07:29:46;;;;;;;2.20;0.40;;;;;;;17.04;65.84;99149.28;5078549;28;20031;-66
2023/10/29 07:32:12;;;;;;;1.30;0.60;;;;;;;17.13;65.57;99159.22;5073117;28;20293;-66
2023/10/29 07:34:38;;;;;;;5.80;0.80;;;;;;;17.57;63.77;99167.84;5074728;28;20028;-66
2023/10/29 07:37:04;;;;;;;1.70;0.50;;;;;;;17.64;62.40;99174.47;5072525;28;20092;-66
2023/10/29 07:39:29;;;;;;;3.10;0.30;;;;;;;17.57;62.83;99162.56;5073908;28;20020;-66
2023/10/29 07:41:54;;;;;;;3.80;0.40;;;;;;;17.97;60.02;99173.19;5078162;28;20406;-66
2023/10/29 07:44:22;;;;;;;1.27;0.38;;;;;;;18.29;59.44;99178.09;5088083;28;20039;-66
2023/10/29 07:46:47;;;;;;;5.97;0.50;;;;;;;18.68;59.55;99181.56;5112750;28;20027;-65
2023/10/29 07:49:12;;;;;;;1.88;0.38;;;;;;;19.20;57.31;99189.47;5110520;28;20833;-65
2023/10/29 07:51:39;;;;;;;7.45;0.50;;;;;;;18.43;59.40;99188.56;5079547;28;20448;-66
2023/10/29 07:54:05;;;;;;;2.30;0.40;;;;;;;17.93;61.79;99198.16;5073890;28;20034;-66
2023/10/29 07:56:31;;;;;;;5.63;0.75;;;;;;;17.92;60.37;99183.22;5084955;28;20414;-66
2023/10/29 07:58:56;;;;;;;2.67;0.65;;;;;;;18.22;60.68;99195.34;5105597;28;20062;-66
2023/10/29 08:01:22;;;;;;;6.65;0.90;;;;;;;18.58;60.07;99218.41;5077991;28;20034;-68
2023/10/29 08:03:48;;;;;;;12.60;1.00;;;;;;;19.12;57.68;99230.59;5086884;28;20115;-66
2023/10/29 08:06:14;;;;;;;0.95;0.30;;;;;;;18.31;61.41;99232.59;5093871;28;20023;-66
2023/10/29 08:08:40;;;;;;;2.43;0.70;;;;;;;18.63;61.08;99231.34;5093035;28;20140;-65
2023/10/29 08:11:05;;;;;;;1.90;0.33;;;;;;;17.41;66.36;99226.97;5103680;28;20424;-66
2023/10/29 08:13:31;;;;;;;1.08;0.63;;;;;;;17.73;64.35;99221.38;5080949;28;20036;-66
2023/10/29 08:15:58;;;;;;;9.30;0.88;;;;;;;18.01;63.53;99230.19;5077220;28;20110;-66
2023/10/29 08:18:23;;;;;;;2.80;0.90;;;;;;;17.62;64.41;99224.72;5075752;28;20434;-66
2023/10/29 08:20:48;;;;;;;2.08;0.57;;;;;;;17.83;64.36;99231.38;5081278;28;20118;-66
2023/10/29 08:23:14;;;;;;;1.35;0.43;;;;;;;17.91;64.17;99234.34;5097709;28;20039;-66
2023/10/29 08:25:39;;;;;;;2.88;1.05;;;;;;;17.29;64.98;99238.31;5073747;28;20395;-66
2023/10/29 08:28:08;;;;;;;8.43;1.58;;;;;;;17.80;63.41;99229.78;5073125;28;20028;-66
2023/10/29 08:30:34;;;;;;;0.83;0.60;;;;;;;17.23;64.88;99249.28;5076466;28;20028;-66
2023/10/29 08:32:59;;;;;;;0.70;0.40;;;;;;;17.96;62.05;99246.34;5100799;28;20038;-66
2023/10/29 08:35:24;;;;;;;2.53;0.55;;;;;;;17.79;63.46;99258.00;5111798;28;20027;-66
2023/10/29 08:37:50;;;;;;;1.40;0.50;;;;;;;17.99;62.31;99247.94;5112058;28;20145;-66
2023/10/29 08:40:15;;;;;;;1.60;0.40;;;;;;;17.70;61.87;99242.75;5087622;28;20028;-66
2023/10/29 08:42:41;;;;;;;4.07;0.70;;;;;;;18.87;58.31;99243.81;5073264;28;20051;-66
2023/10/29 08:45:06;;;;;;;2.03;0.57;;;;;;;18.19;59.17;99256.34;5072187;28;20024;-66
2023/10/29 08:47:32;;;;;;;2.35;0.47;;;;;;;17.80;58.19;99265.00;5091526;28;20068;-66
2023/10/29 08:49:58;;;;;;;4.70;0.68;;;;;;;18.55;56.93;99273.34;5089750;28;20032;-66
2023/10/29 08:52:23;;;;;;;4.28;0.80;;;;;;;18.68;56.20;99273.34;5087649;28;20035;-66
2023/10/29 08:54:49;;;;;;;2.47;0.80;;;;;;;17.81;58.48;99286.97;5091659;28;20031;-65
2023/10/29 08:57:15;;;;;;;2.67;0.60;;;;;;;17.79;58.93;99292.34;5092932;28;20163;-65
2023/10/29 08:59:40;;;;;;;2.53;0.52;;;;;;;18.01;58.11;99298.06;5092705;28;20059;-66
2023/10/29 09:02:07;;;;;;;1.08;0.43;;;;;;;17.57;58.96;99294.66;5092365;28;20031;-66
2023/10/29 09:04:37;;;;;;;4.60;0.73;;;;;;;18.21;57.85;99304.69;5090986;28;20028;-66
2023/10/29 09:07:03;;;;;;;2.05;0.57;;;;;;;18.12;58.00;99309.63;5072086;28;20028;-66
2023/10/29 09:09:29;;;;;;;6.15;0.60;;;;;;;18.18;57.75;99312.84;5073215;28;20028;-66
2023/10/29 09:11:54;;;;;;;1.42;0.50;;;;;;;17.85;59.18;99321.97;5087475;28;20486;-65
2023/10/29 09:14:20;;;;;;;6.47;0.82;;;;;;;17.87;59.29;99312.97;5073865;28;20055;-66
2023/10/29 09:16:47;;;;;;;1.77;0.40;;;;;;;18.55;57.95;99316.53;5073086;28;20612;-66
2023/10/29 09:19:13;;;;;;;3.95;0.68;;;;;;;18.22;57.76;99309.03;5090210;28;20336;-66
2023/10/29 09:21:38;;;;;;;3.97;1.05;;;;;;;18.55;57.16;99313.88;5108298;28;20484;-67
2023/10/29 09:24:05;;;;;;;5.88;0.60;;;;;;;18.96;55.38;99317.34;5089286;28;20028;-66
2023/10/29 09:26:31;;;;;;;6.18;0.98;;;;;;;18.75;56.29;99316.97;5088299;28;20031;-66
2023/10/29 09:28:57;;;;;;;4.35;1.20;;;;;;;19.18;55.55;99319.34;5078033;28;20497;-65
2023/10/29 09:31:22;;;;;;;5.50;0.73;;;;;;;18.43;56.86;99326.13;5080930;28;20031;-66
2023/10/29 09:33:47;;;;;;;5.15;0.80;;;;;;;18.21;57.35;99331.16;5072995;28;20030;-66
2023/10/29 09:36:13;;;;;;;4.63;0.63;;;;;;;18.34;56.72;99331.16;5082551;28;20050;-66
2023/10/29 09:38:39;;;;;;;3.00;0.45;;;;;;;18.22;57.98;99324.91;5073002;28;20035;-66
2023/10/29 09:41:07;;;;;;;4.30;0.63;;;;;;;19.58;54.78;99328.94;5072743;28;20065;-66
2023/10/29 09:43:38;;;;;;;5.03;0.65;;;;;;;18.93;55.92;99322.81;5090099;28;20052;-66
2023/10/29 09:46:05;;;;;;;8.18;0.80;;;;;;;19.07;55.94;99328.03;5084238;28;20097;-66
2023/10/29 09:48:33;;;;;;;3.70;0.60;;;;;;;18.79;55.10;99321.97;5092160;28;20439;-66
2023/10/29 09:51:00;;;;;;;7.50;1.27;;;;;;;18.82;54.64;99316.44;5110939;28;20050;-66
2023/10/29 09:53:28;;;;;;;10.73;1.75;;;;;;;19.02;54.88;99313.41;5100923;28;20036;-66
2023/10/29 09:55:54;;;;;;;5.68;0.80;;;;;;;19.28;53.77;99325.66;5080640;28;20036;-66
2023/10/29 09:58:22;;;;;;;3.50;0.75;;;;;;;19.07;54.68;99314.78;5080863;28;20035;-66
2023/10/29 10:00:49;;;;;;;3.15;1.30;;;;;;;18.56;55.68;99327.94;5091594;28;20111;-66
2023/10/29 10:03:15;;;;;;;6.18;0.70;;;;;;;19.02;54.40;99313.41;5075484;28;20032;-65
2023/10/29 10:05:42;;;;;;;8.98;1.00;;;;;;;18.31;55.80;99316.34;5075806;28;20020;-67
2023/10/29 10:08:07;;;;;;;3.38;0.73;;;;;;;19.24;53.97;99304.81;5090401;28;20059;-66
2023/10/29 10:10:43;;;;;;;8.55;0.93;;;;;;;18.78;54.50;99299.09;5114293;28;20546;-66
2023/10/29 10:13:10;;;;;;;3.60;0.98;;;;;;;19.58;52.82;99310.38;5111003;28;20028;-66
2023/10/29 10:15:38;;;;;;;6.72;1.20;;;;;;;19.52;53.35;99302.84;5094896;28;20046;-66
2023/10/29 10:18:05;;;;;;;9.65;1.05;;;;;;;18.59;55.20;99293.34;5080080;28;20035;-66
2023/10/29 10:20:32;;;;;;;7.75;0.95;;;;;;;18.96;54.47;99312.03;5096185;28;20492;-66
2023/10/29 10:23:15;;;;;;;6.35;0.95;;;;;;;20.03;51.56;99308.03;5096133;28;20076;-67
2023/10/29 10:25:40;;;;;;;4.32;1.30;;;;;;;19.55;52.65;99314.09;5113283;28;20202;-67
2023/10/29 10:28:06;;;;;;;8.80;1.20;;;;;;;19.97;51.91;99319.06;5114540;28;20106;-67
2023/10/29 10:30:34;;;;;;;6.45;1.13;;;;;;;19.20;53.21;99335.97;5114757;28;20096;-67
2023/10/29 10:33:08;;;;;;;6.47;0.70;;;;;;;19.80;51.73;99334.41;5094429;28;20027;-66
2023/10/29 10:35:41;;;;;;;7.68;1.23;;;;;;;19.14;53.05;99329.28;5093913;28;20476;-66
2023/10/29 10:38:07;;;;;;;5.45;0.90;;;;;;;19.75;51.96;99328.53;5099509;28;20035;-67
2023/10/29 10:40:32;;;;;;;7.57;0.93;;;;;;;20.08;51.36;99348.28;5093474;28;20076;-67
2023/10/29 10:42:58;;;;;;;3.40;0.40;;;;;;;20.05;50.41;99353.81;5075256;28;20508;-67
2023/10/29 10:45:27;;;;;;;6.90;1.55;;;;;;;19.23;51.63;99371.97;5093369;28;20047;-67
2023/10/29 10:47:57;;;;;;;3.95;0.57;;;;;;;19.25;51.91;99389.47;5096380;28;20037;-67
2023/10/29 10:50:27;;;;;;;5.78;0.75;;;;;;;18.88;52.42;99404.38;5095880;28;20054;-67
2023/10/29 10:52:57;;;;;;;8.05;1.15;;;;;;;18.86;52.85;99406.22;5079869;28;20027;-67
2023/10/29 10:55:24;;;;;;;2.55;0.85;;;;;;;19.23;51.78;99398.47;5083289;28;20024;-67
2023/10/29 10:57:50;;;;;;;4.85;1.25;;;;;;;18.77;52.24;99402.41;5110831;28;20023;-67
2023/10/29 11:00:19;;;;;;;5.18;0.85;;;;;;;19.34;52.65;99380.03;5113616;28;20030;-67
2023/10/29 11:02:46;;;;;;;6.80;1.00;;;;;;;20.29;49.34;99366.25;5090797;28;20019;-67
2023/10/29 11:05:16;;;;;;;3.47;0.75;;;;;;;20.13;49.91;99351.47;5099632;28;20086;-67
2023/10/29 11:07:42;;;;;;;5.72;1.02;;;;;;;19.14;51.72;99358.41;5108825;28;20482;-66
2023/10/29 11:10:11;;;;;;;7.38;1.08;;;;;;;19.48;51.81;99361.38;5084166;28;20027;-67
2023/10/29 11:12:38;;;;;;;6.22;0.85;;;;;;;19.26;51.93;99355.88;5093057;28;20490;-67
2023/10/29 11:15:19;;;;;;;2.58;1.08;;;;;;;19.83;50.98;99350.06;5074079;28;20492;-67
2023/10/29 11:17:53;;;;;;;4.22;0.88;;;;;;;19.80;51.04;99345.00;5074979;28;20023;-67
2023/10/29 11:20:38;;;;;;;8.38;0.93;;;;;;;19.14;51.45;99345.19;5108697;28;20039;-67
2023/10/29 11:23:12;;;;;;;6.40;1.35;;;;;;;20.20;49.73;99351.03;5095104;28;20465;-67
2023/10/29 11:25:39;;;;;;;5.30;0.47;;;;;;;19.29;51.67;99353.03;5108696;28;20024;-67
2023/10/29 11:28:04;;;;;;;5.60;1.50;;;;;;;19.97;50.64;99334.97;5086295;28;20027;-67